Time;durP1;ratioP1;P1;durP2;ratioP2;P2;SDS_P1;SDS_P2;PMS_P1;PMS_P2;Temp;Humidity;BMP_temperature;BMP_pressure;BME280_temperature;BME280_humidity;BME280_pressure;Samples;Min_cycle;Max_cycle;Signal;HPM_P1;HPM_P2
2023/08/22 00:00:53;;;;;;;;;2.75;2.00;;;;;20.15;66.23;102085.56;5029758;28;8824;-67
2023/08/22 00:03:20;;;;;;;;;0.75;0.75;;;;;20.12;66.07;102086.84;5009907;28;8849;-69
2023/08/22 00:05:47;;;;;;;;;2.75;2.75;;;;;20.10;66.44;102091.72;5023672;28;8914;-71
2023/08/22 00:08:13;;;;;;;;;2.00;2.00;;;;;20.08;66.79;102091.09;5024038;28;8866;-69
2023/08/22 00:10:40;;;;;;;;;1.25;0.00;;;;;20.06;66.67;102090.50;5032971;28;8848;-68
2023/08/22 00:13:06;;;;;;;;;2.00;2.00;;;;;20.08;66.80;102095.72;5031326;28;9080;-69
2023/08/22 00:15:33;;;;;;;;;2.50;2.25;;;;;20.07;66.93;102091.34;5031247;28;8860;-70
2023/08/22 00:18:00;;;;;;;;;3.00;1.75;;;;;20.07;67.02;102085.88;5031771;28;8841;-69
2023/08/22 00:20:27;;;;;;;;;2.00;2.00;;;;;20.08;67.00;102082.06;5024850;28;8836;-68
2023/08/22 00:22:53;;;;;;;;;3.00;2.00;;;;;20.08;67.14;102079.31;5028765;28;8819;-69
2023/08/22 00:25:20;;;;;;;;;2.00;2.00;;;;;20.05;66.98;102075.13;5032344;28;8926;-68
2023/08/22 00:27:46;;;;;;;;;2.00;2.00;;;;;20.02;67.16;102070.16;5037398;28;8823;-69
2023/08/22 00:30:13;;;;;;;;;5.00;3.25;;;;;19.99;67.24;102065.13;5012903;28;8865;-68
2023/08/22 00:32:39;;;;;;;;;1.75;1.75;;;;;19.98;67.36;102072.50;5027221;28;8825;-68
2023/08/22 00:35:06;;;;;;;;;3.00;2.00;;;;;19.96;67.37;102060.94;5008915;28;8845;-68
2023/08/22 00:37:33;;;;;;;;;2.00;1.00;;;;;19.94;67.55;102057.63;5033655;28;8839;-68
2023/08/22 00:40:00;;;;;;;;;2.75;2.75;;;;;19.90;67.64;102064.59;5019296;28;8847;-68
2023/08/22 00:42:26;;;;;;;;;2.00;2.00;;;;;19.87;67.64;102045.91;5025668;28;8981;-68
2023/08/22 00:44:59;;;;;;;;;3.00;1.75;;;;;19.87;68.02;102047.81;5073125;27;13434;-67
2023/08/22 00:47:25;;;;;;;;;2.00;2.00;;;;;19.84;68.18;102040.06;5060902;28;8911;-68
2023/08/22 00:49:52;;;;;;;;;2.50;2.00;;;;;19.82;68.33;102042.19;5062724;28;8838;-68
2023/08/22 00:52:20;;;;;;;;;5.50;2.00;;;;;19.80;68.20;102038.84;5058640;28;8828;-68
2023/08/22 00:54:49;;;;;;;;;2.00;2.00;;;;;19.79;68.35;102046.22;5053662;28;8841;-69
2023/08/22 00:57:15;;;;;;;;;2.25;1.25;;;;;19.76;68.56;102030.25;5065959;28;8850;-69
2023/08/22 00:59:42;;;;;;;;;3.50;3.50;;;;;19.76;68.59;102035.72;5057472;28;8847;-68
2023/08/22 01:02:08;;;;;;;;;2.00;2.00;;;;;19.74;68.65;102029.66;5047782;28;8836;-70
2023/08/22 01:04:35;;;;;;;;;3.00;3.00;;;;;19.73;68.77;102028.84;5050268;28;8840;-69
2023/08/22 01:07:11;;;;;;;;;2.75;1.75;;;;;19.71;68.88;102028.22;5057901;28;8894;-70
2023/08/22 01:09:50;;;;;;;;;7.75;3.00;;;;;19.72;68.89;102024.41;5064261;28;8822;-70
2023/08/22 01:12:26;;;;;;;;;3.00;3.00;;;;;19.71;68.90;102020.00;5059118;28;8818;-68
2023/08/22 01:15:05;;;;;;;;;2.00;2.00;;;;;19.73;69.05;102019.81;5059108;28;8851;-71
2023/08/22 01:17:33;;;;;;;;;1.25;1.25;;;;;19.69;69.32;102016.69;5069071;28;8833;-69
2023/08/22 01:19:59;;;;;;;;;2.00;1.00;;;;;19.69;69.23;102024.06;5064851;28;8850;-71
2023/08/22 01:22:26;;;;;;;;;3.25;2.00;;;;;19.67;69.52;102021.53;5056517;28;8814;-72
2023/08/22 01:24:53;;;;;;;;;2.25;2.00;;;;;19.66;69.55;102019.88;5060188;28;9728;-69
2023/08/22 01:27:23;;;;;;;;;4.50;2.00;;;;;19.67;69.60;102020.69;5063420;28;8833;-69
2023/08/22 01:30:03;;;;;;;;;2.00;2.00;;;;;19.65;69.66;102026.41;5046627;28;8856;-69
2023/08/22 01:32:33;;;;;;;;;2.25;2.00;;;;;19.64;69.68;102021.97;5058617;28;8851;-70
2023/08/22 01:35:04;;;;;;;;;2.00;2.00;;;;;19.63;69.78;102024.94;5045435;28;8882;-69
2023/08/22 01:37:31;;;;;;;;;5.25;3.75;;;;;19.60;69.87;102030.81;5054243;28;8913;-68
2023/08/22 01:40:01;;;;;;;;;4.00;4.00;;;;;19.58;69.90;102038.41;5059286;28;8842;-68
2023/08/22 01:42:28;;;;;;;;;3.00;2.50;;;;;19.55;69.86;102047.06;5066532;28;8845;-68
2023/08/22 01:44:54;;;;;;;;;4.75;3.00;;;;;19.52;70.06;102046.44;5058157;28;8866;-68
2023/08/22 01:47:21;;;;;;;;;3.00;2.25;;;;;19.50;69.97;102036.81;5066298;28;8833;-68
2023/08/22 01:49:48;;;;;;;;;1.25;1.25;;;;;19.49;70.25;102035.16;5056590;28;8841;-68
2023/08/22 01:52:14;;;;;;;;;1.00;1.00;;;;;19.47;70.31;102027.16;5062844;28;8869;-68
2023/08/22 01:54:41;;;;;;;;;6.00;4.00;;;;;19.45;70.29;102020.25;5059458;28;8935;-68
2023/08/22 01:57:07;;;;;;;;;7.75;5.50;;;;;19.42;70.44;102027.00;5050104;28;8822;-68
2023/08/22 01:59:34;;;;;;;;;3.00;3.00;;;;;19.40;70.52;102033.72;5047876;28;8833;-68
2023/08/22 02:02:01;;;;;;;;;4.75;3.00;;;;;19.39;70.80;102037.53;5046628;28;9599;-69
2023/08/22 02:04:27;;;;;;;;;4.50;4.50;;;;;19.37;71.03;102034.19;5046052;28;8844;-69
2023/08/22 02:06:54;;;;;;;;;3.00;3.00;;;;;19.34;71.19;102035.47;5048304;28;8830;-70
2023/08/22 02:09:21;;;;;;;;;3.00;3.00;;;;;19.33;71.16;102025.63;5054257;28;8927;-70
2023/08/22 02:11:48;;;;;;;;;4.50;4.00;;;;;19.33;71.18;102028.34;5048643;28;8829;-69
2023/08/22 02:14:14;;;;;;;;;6.00;6.00;;;;;19.32;71.28;102026.66;5044423;28;8840;-70
2023/08/22 02:16:41;;;;;;;;;6.50;5.00;;;;;19.30;71.41;102017.88;5067341;28;8794;-70
2023/08/22 02:19:08;;;;;;;;;3.50;3.50;;;;;19.27;71.49;102021.03;5048480;28;8824;-70
2023/08/22 02:21:34;;;;;;;;;2.00;2.00;;;;;19.25;71.55;102004.91;5042176;28;8827;-69
2023/08/22 02:24:01;;;;;;;;;5.25;4.50;;;;;19.25;71.73;102006.78;5042330;28;8829;-69
2023/08/22 02:26:29;;;;;;;;;3.00;3.00;;;;;19.24;71.54;102011.41;5049666;28;8841;-69
2023/08/22 02:28:55;;;;;;;;;4.75;3.00;;;;;19.24;71.85;102005.97;5049373;28;8830;-69
2023/08/22 02:31:22;;;;;;;;;3.50;3.50;;;;;19.22;71.79;102010.78;5047244;28;8836;-69
2023/08/22 02:33:48;;;;;;;;;5.50;5.50;;;;;19.21;71.66;102011.88;5048811;28;8963;-69
2023/08/22 02:36:15;;;;;;;;;7.00;7.00;;;;;19.18;71.77;102006.84;5046211;28;8833;-69
2023/08/22 02:38:41;;;;;;;;;5.50;4.50;;;;;19.18;71.65;101997.81;5031495;28;8857;-70
2023/08/22 02:41:08;;;;;;;;;5.50;5.50;;;;;19.14;71.71;102000.16;5048504;28;8903;-69
2023/08/22 02:43:34;;;;;;;;;8.25;5.50;;;;;19.14;71.85;101999.31;5059321;28;8847;-69
2023/08/22 02:46:01;;;;;;;;;5.75;4.00;;;;;19.12;71.76;102002.28;5071229;28;8854;-69
2023/08/22 02:48:27;;;;;;;;;9.50;7.25;;;;;19.12;71.94;101998.69;5066208;28;8819;-70
2023/08/22 02:50:54;;;;;;;;;6.00;6.00;;;;;19.11;71.97;101999.75;5066168;28;8865;-70
2023/08/22 02:53:21;;;;;;;;;4.50;4.50;;;;;19.09;72.09;101994.53;5050155;28;8906;-70
2023/08/22 02:55:48;;;;;;;;;7.00;6.75;;;;;19.08;72.22;101995.59;5059376;28;8838;-69
2023/08/22 02:58:15;;;;;;;;;6.00;6.00;;;;;19.07;72.20;101990.34;5066077;28;8839;-69
2023/08/22 03:00:45;;;;;;;;;4.25;4.25;;;;;19.03;72.08;101987.22;5068009;28;9506;-69
2023/08/22 03:03:13;;;;;;;;;4.50;4.50;;;;;19.00;72.28;101983.06;5070425;28;8941;-69
2023/08/22 03:05:40;;;;;;;;;5.75;3.50;;;;;19.00;72.39;101987.69;5062470;28;8960;-68
2023/08/22 03:08:07;;;;;;;;;6.00;6.00;;;;;18.99;72.28;101981.38;5058636;28;8838;-69
2023/08/22 03:10:34;;;;;;;;;3.50;3.50;;;;;18.99;72.44;101980.53;5063669;28;8818;-69
2023/08/22 03:13:01;;;;;;;;;4.00;4.00;;;;;18.98;72.41;101985.16;5052903;28;8839;-69
2023/08/22 03:15:30;;;;;;;;;5.00;4.75;;;;;18.99;72.40;101991.47;5080372;28;8837;-69
2023/08/22 03:17:56;;;;;;;;;2.75;2.75;;;;;18.97;72.36;101988.97;5070244;28;8846;-69
2023/08/22 03:20:23;;;;;;;;;3.25;2.00;;;;;18.96;72.40;101978.28;5069924;28;8855;-68
2023/08/22 03:22:50;;;;;;;;;5.00;5.00;;;;;18.95;72.34;101985.59;5065957;28;8919;-69
2023/08/22 03:25:16;;;;;;;;;5.00;5.00;;;;;18.93;72.47;101990.47;5064926;28;8851;-69
2023/08/22 03:27:44;;;;;;;;;2.25;2.25;;;;;18.92;72.83;101988.81;5053514;28;8969;-69
2023/08/22 03:30:10;;;;;;;;;3.25;3.25;;;;;18.92;72.53;101983.34;5052877;28;8876;-68
2023/08/22 03:32:37;;;;;;;;;4.00;4.00;;;;;18.93;72.48;101984.19;5068627;28;8858;-69
2023/08/22 03:35:05;;;;;;;;;5.00;4.00;;;;;18.93;72.61;101986.91;5052180;28;8976;-68
2023/08/22 03:37:35;;;;;;;;;2.75;2.75;;;;;18.92;72.42;101977.88;5063838;28;8837;-69
2023/08/22 03:40:02;;;;;;;;;3.00;3.00;;;;;18.91;72.63;101975.34;5066274;28;9153;-68
2023/08/22 03:42:29;;;;;;;;;2.50;2.50;;;;;18.91;72.54;101972.63;5068507;28;8889;-70
2023/08/22 03:45:01;;;;;;;;;6.00;6.00;;;;;18.92;72.58;101971.56;5060310;28;8888;-69
2023/08/22 03:47:28;;;;;;;;;3.00;3.00;;;;;18.93;72.69;101979.56;5067400;28;8815;-68
2023/08/22 03:49:55;;;;;;;;;6.50;3.50;;;;;18.95;72.55;101979.31;5079053;28;8957;-69
2023/08/22 03:52:25;;;;;;;;;3.50;3.50;;;;;18.93;72.68;101976.81;5064640;28;8823;-70
2023/08/22 03:54:52;;;;;;;;;3.00;3.00;;;;;18.93;72.73;101978.72;5066539;28;8843;-68
2023/08/22 03:57:18;;;;;;;;;4.50;2.25;;;;;18.93;72.66;101973.25;5067886;28;8847;-69
2023/08/22 03:59:47;;;;;;;;;3.25;3.25;;;;;18.92;72.75;101968.84;5061185;28;8846;-68
2023/08/22 04:02:14;;;;;;;;;3.50;3.50;;;;;18.90;72.91;101971.81;5060053;28;8960;-69
2023/08/22 04:04:41;;;;;;;;;4.75;4.75;;;;;18.88;72.89;101973.94;5077323;28;8897;-69
2023/08/22 04:07:08;;;;;;;;;8.00;6.00;;;;;18.86;72.84;101972.47;5058499;28;8905;-70
2023/08/22 04:09:34;;;;;;;;;7.25;5.00;;;;;18.86;73.04;101972.47;5064741;28;8834;-68
2023/08/22 04:12:03;;;;;;;;;5.50;5.50;;;;;18.83;73.07;101973.75;5066336;28;8849;-69
2023/08/22 04:14:29;;;;;;;;;6.50;6.50;;;;;18.81;72.85;101973.13;5056531;28;8822;-69
2023/08/22 04:16:56;;;;;;;;;7.25;6.00;;;;;18.81;73.08;101977.75;5064355;28;8866;-68
2023/08/22 04:19:22;;;;;;;;;7.00;7.00;;;;;18.76;73.18;101973.81;5066531;28;8835;-68
2023/08/22 04:21:49;;;;;;;;;8.50;6.75;;;;;18.77;73.24;101980.09;5068883;28;9578;-69
2023/08/22 04:24:16;;;;;;;;;5.00;5.00;;;;;18.74;73.32;101970.44;5063920;28;9575;-69
2023/08/22 04:26:43;;;;;;;;;8.25;6.00;;;;;18.73;73.33;101978.88;5059460;28;8974;-69
2023/08/22 04:29:10;;;;;;;;;5.00;5.00;;;;;18.74;73.36;101983.25;5061442;28;8843;-69
2023/08/22 04:31:36;;;;;;;;;6.75;6.75;;;;;18.73;73.62;101992.50;5049633;28;8873;-69
2023/08/22 04:34:03;;;;;;;;;6.00;6.00;;;;;18.71;73.34;101986.41;5080961;28;8839;-68
2023/08/22 04:36:33;;;;;;;;;5.50;4.75;;;;;18.71;73.47;101984.53;5063662;28;8831;-69
2023/08/22 04:39:00;;;;;;;;;7.50;7.25;;;;;18.69;73.46;101983.88;5074429;28;8856;-69
2023/08/22 04:41:28;;;;;;;;;6.00;5.00;;;;;18.70;73.48;101982.84;5065302;28;8831;-69
2023/08/22 04:44:15;;;;;;;;;6.75;6.25;;;;;18.68;73.67;101976.78;5066020;28;8954;-69
2023/08/22 04:46:41;;;;;;;;;7.00;7.00;;;;;18.67;73.61;101980.53;5060036;28;8840;-69
2023/08/22 04:49:08;;;;;;;;;6.25;6.25;;;;;18.66;73.44;101978.88;5062117;28;8849;-69
2023/08/22 04:51:34;;;;;;;;;6.50;6.50;;;;;18.68;73.64;101978.66;5057615;28;8908;-70
2023/08/22 04:54:01;;;;;;;;;7.50;7.50;;;;;18.66;73.66;101976.13;5067177;28;9599;-68
2023/08/22 04:56:27;;;;;;;;;7.75;7.75;;;;;18.67;73.37;101977.81;5054451;28;8845;-69
2023/08/22 04:58:54;;;;;;;;;7.00;5.75;;;;;18.68;73.76;101973.22;5051126;28;8845;-69
2023/08/22 05:01:21;;;;;;;;;9.00;6.25;;;;;18.68;73.40;101967.75;5066705;28;8868;-69
2023/08/22 05:03:47;;;;;;;;;7.25;7.00;;;;;18.68;73.41;101971.31;5071029;28;8908;-70
2023/08/22 05:06:14;;;;;;;;;10.00;6.00;;;;;18.66;73.45;101959.78;5053684;28;8834;-70
2023/08/22 05:08:41;;;;;;;;;7.75;7.75;;;;;18.66;73.61;101965.22;5079078;28;8838;-70
2023/08/22 05:11:09;;;;;;;;;10.50;6.50;;;;;18.66;73.71;101967.97;5068291;28;8850;-69
2023/08/22 05:13:36;;;;;;;;;6.75;6.75;;;;;18.68;73.69;101963.13;5068671;28;9727;-69
2023/08/22 05:16:03;;;;;;;;;3.75;3.00;;;;;18.71;73.74;101967.31;5059991;28;9556;-69
2023/08/22 05:18:30;;;;;;;;;4.00;3.00;;;;;18.72;73.61;101966.28;5061800;28;8939;-69
2023/08/22 05:20:59;;;;;;;;;3.00;3.00;;;;;18.75;73.87;101963.94;5039878;28;8903;-69
2023/08/22 05:23:26;;;;;;;;;5.50;5.00;;;;;18.75;73.72;101963.94;5062814;28;8931;-70
2023/08/22 05:25:52;;;;;;;;;6.50;6.50;;;;;18.75;73.87;101963.94;5062445;28;8871;-69
2023/08/22 05:28:19;;;;;;;;;5.00;4.00;;;;;18.77;73.81;101959.09;5068551;28;8858;-70
2023/08/22 05:30:45;;;;;;;;;5.50;5.00;;;;;18.77;73.82;101961.84;5068186;28;8869;-69
2023/08/22 05:33:12;;;;;;;;;4.75;4.75;;;;;18.77;73.81;101961.84;5072332;28;8837;-70
2023/08/22 05:35:38;;;;;;;;;5.75;5.75;;;;;18.79;73.70;101961.59;5079249;28;8837;-69
2023/08/22 05:38:05;;;;;;;;;4.50;4.00;;;;;18.81;73.94;101964.13;5073318;28;8812;-69
2023/08/22 05:40:32;;;;;;;;;4.75;4.75;;;;;18.82;73.94;101966.63;5062287;28;8839;-70
2023/08/22 05:42:58;;;;;;;;;12.00;8.00;;;;;18.82;73.98;101969.34;5072109;28;8835;-71
2023/08/22 05:45:26;;;;;;;;;6.75;6.00;;;;;18.85;73.93;101963.47;5051299;28;8941;-71
2023/08/22 05:47:52;;;;;;;;;5.75;4.25;;;;;18.86;73.95;101969.75;5054489;28;8897;-70
2023/08/22 05:50:20;;;;;;;;;6.50;5.50;;;;;18.86;74.04;101967.00;5059025;28;8911;-69
2023/08/22 05:52:46;;;;;;;;;3.75;3.75;;;;;18.87;74.08;101966.78;5063320;28;8831;-69
2023/08/22 05:55:13;;;;;;;;;6.75;6.75;;;;;18.91;74.08;101972.63;5051734;28;8831;-70
2023/08/22 05:57:41;;;;;;;;;6.00;4.00;;;;;18.95;73.98;101973.84;5082930;28;8892;-69
2023/08/22 06:00:09;;;;;;;;;6.50;6.50;;;;;18.95;73.74;101982.03;5085643;28;8835;-69
2023/08/22 06:02:51;;;;;;;;;6.00;4.25;;;;;18.96;73.73;101987.31;5064918;28;8816;-70
2023/08/22 06:05:17;;;;;;;;;3.00;3.00;;;;;18.99;73.95;102000.47;5065416;28;8838;-69
2023/08/22 06:07:44;;;;;;;;;5.50;4.25;;;;;19.03;73.80;101996.25;5063705;28;8846;-69
2023/08/22 06:10:10;;;;;;;;;3.75;3.50;;;;;19.05;73.71;101987.84;5059137;28;8842;-70
2023/08/22 06:12:38;;;;;;;;;5.50;5.00;;;;;19.06;73.57;101997.72;5068573;28;9684;-69
2023/08/22 06:15:05;;;;;;;;;3.50;3.50;;;;;19.07;73.64;101999.38;5053602;28;9624;-70
2023/08/22 06:17:32;;;;;;;;;7.00;7.00;;;;;19.03;73.66;101988.06;5066465;28;8911;-69
2023/08/22 06:19:59;;;;;;;;;12.00;10.00;;;;;19.03;73.77;101981.78;5071166;28;8831;-69
2023/08/22 06:22:28;;;;;;;;;9.50;8.75;;;;;19.03;73.87;101987.22;5052645;28;8873;-70
2023/08/22 06:24:54;;;;;;;;;10.25;8.50;;;;;19.06;73.48;101991.41;5064642;28;8853;-68
2023/08/22 06:27:21;;;;;;;;;7.50;7.50;;;;;19.05;73.61;101996.03;5058865;28;8911;-68
2023/08/22 06:29:48;;;;;;;;;11.50;11.00;;;;;19.01;73.73;101989.34;5064127;28;8835;-69
2023/08/22 06:32:21;;;;;;;;;6.00;5.75;;;;;19.02;73.80;101982.84;5066165;28;8841;-69
2023/08/22 06:34:49;;;;;;;;;7.25;6.25;;;;;19.09;73.70;101988.25;5051104;28;8853;-68
2023/08/22 06:37:17;;;;;;;;;8.25;7.75;;;;;19.13;73.62;101987.56;5051074;28;8903;-69
2023/08/22 06:39:43;;;;;;;;;10.50;8.25;;;;;19.10;73.47;101982.56;5050724;28;8830;-69
2023/08/22 06:42:12;;;;;;;;;6.00;6.00;;;;;19.12;73.45;101982.31;5063563;28;8822;-69
2023/08/22 06:44:38;;;;;;;;;6.00;4.50;;;;;19.16;73.41;101987.13;5066363;28;8838;-68
2023/08/22 06:47:05;;;;;;;;;9.25;5.50;;;;;19.18;73.39;101993.19;5064462;28;8933;-68
2023/08/22 06:49:31;;;;;;;;;7.25;4.00;;;;;19.22;73.56;101997.16;5072246;28;9549;-67
2023/08/22 06:51:58;;;;;;;;;4.75;4.75;;;;;19.23;73.66;101987.06;5070702;28;9597;-68
2023/08/22 06:54:24;;;;;;;;;6.25;6.25;;;;;19.24;73.74;101996.91;5071990;28;8855;-67
2023/08/22 06:56:51;;;;;;;;;12.00;10.50;;;;;19.24;73.81;101996.91;5070100;28;8839;-68
2023/08/22 06:59:17;;;;;;;;;7.00;6.25;;;;;19.30;73.83;101995.19;5068500;28;8904;-67
2023/08/22 07:01:44;;;;;;;;;6.50;4.00;;;;;19.32;74.10;102007.53;5070436;28;8943;-68
2023/08/22 07:04:10;;;;;;;;;7.00;7.00;;;;;19.36;74.00;102005.22;5052017;28;8834;-68
2023/08/22 07:06:42;;;;;;;;;8.50;8.50;;;;;19.41;73.92;102014.41;5051889;28;9552;-68
2023/08/22 07:09:09;;;;;;;;;8.50;6.25;;;;;19.46;74.22;102009.09;5059020;28;8819;-68
2023/08/22 07:11:36;;;;;;;;;7.75;7.00;;;;;19.51;74.10;102011.16;5068838;28;9542;-68
2023/08/22 07:14:03;;;;;;;;;6.50;5.00;;;;;19.57;74.25;102014.88;5070996;28;8827;-69
2023/08/22 07:16:29;;;;;;;;;4.00;4.00;;;;;19.61;74.10;102010.66;5069872;28;8819;-68
2023/08/22 07:18:56;;;;;;;;;5.25;5.25;;;;;19.66;74.28;102017.13;5070304;28;8862;-68
2023/08/22 07:21:22;;;;;;;;;6.50;5.75;;;;;19.68;74.30;102014.16;5069859;28;9627;-69
2023/08/22 07:23:49;;;;;;;;;7.00;6.50;;;;;19.69;74.26;102018.59;5067044;28;8972;-68
2023/08/22 07:26:15;;;;;;;;;7.00;4.75;;;;;19.69;74.53;102021.31;5068246;28;8831;-68
2023/08/22 07:28:42;;;;;;;;;4.25;4.25;;;;;19.71;74.70;102011.00;5087005;28;8843;-68
2023/08/22 07:31:08;;;;;;;;;7.75;7.75;;;;;19.75;74.89;102017.66;5053277;28;8873;-70
2023/08/22 07:33:35;;;;;;;;;4.75;4.75;;;;;19.78;74.72;102016.41;5051199;28;8825;-69
2023/08/22 07:36:02;;;;;;;;;5.50;4.25;;;;;19.83;74.74;102019.28;5049833;28;8850;-70
2023/08/22 07:38:29;;;;;;;;;9.50;5.00;;;;;19.87;74.82;102025.94;5052883;28;8877;-70
2023/08/22 07:40:55;;;;;;;;;4.25;3.75;;;;;19.86;75.13;102024.28;5070964;28;8815;-69
2023/08/22 07:43:22;;;;;;;;;11.25;8.50;;;;;19.87;75.08;102021.31;5071115;28;9754;-70
2023/08/22 07:45:48;;;;;;;;;7.50;6.25;;;;;19.92;75.04;102018.72;5070273;28;8827;-69
2023/08/22 07:48:15;;;;;;;;;5.50;5.50;;;;;19.99;75.06;102024.13;5066307;28;8834;-69
2023/08/22 07:50:42;;;;;;;;;7.75;5.75;;;;;20.06;75.04;102030.38;5049460;28;8876;-69
2023/08/22 07:53:09;;;;;;;;;4.25;4.00;;;;;20.10;74.45;102031.56;5050340;28;8848;-69
2023/08/22 07:55:35;;;;;;;;;1.00;1.00;;;;;20.17;74.57;102042.41;5054963;28;8891;-69
2023/08/22 07:58:02;;;;;;;;;8.75;7.00;;;;;20.19;74.46;102032.09;5070837;28;9560;-69
2023/08/22 08:00:29;;;;;;;;;8.25;6.25;;;;;20.20;74.32;102036.50;5069305;28;8831;-69
2023/08/22 08:02:55;;;;;;;;;5.25;5.00;;;;;20.23;74.32;102023.19;5066843;28;8845;-71
2023/08/22 08:05:22;;;;;;;;;4.00;3.25;;;;;20.29;74.10;102021.44;5050318;28;8911;-71
2023/08/22 08:07:48;;;;;;;;;3.50;2.75;;;;;20.34;73.79;102018.88;5061933;28;8858;-70
2023/08/22 08:10:15;;;;;;;;;7.50;6.25;;;;;20.37;73.56;102021.13;5062327;28;8822;-69
2023/08/22 08:12:41;;;;;;;;;4.75;4.75;;;;;20.38;73.38;102022.81;5082921;28;8815;-70
2023/08/22 08:15:09;;;;;;;;;3.75;3.75;;;;;20.39;73.28;102027.19;5068904;28;8953;-70
2023/08/22 08:17:35;;;;;;;;;4.25;4.25;;;;;20.40;73.28;102036.25;5069264;28;8835;-69
2023/08/22 08:20:04;;;;;;;;;3.50;3.50;;;;;20.43;73.15;102036.63;5070120;28;10043;-70
2023/08/22 08:22:30;;;;;;;;;8.00;6.75;;;;;20.43;73.15;102024.84;5070850;28;8924;-70
2023/08/22 08:24:57;;;;;;;;;10.25;8.50;;;;;20.46;73.00;102032.59;5059523;28;8851;-69
2023/08/22 08:27:24;;;;;;;;;8.00;8.00;;;;;20.48;72.98;102034.03;5068748;28;8834;-70
2023/08/22 08:29:50;;;;;;;;;5.75;5.75;;;;;20.50;72.87;102047.50;5070120;28;8831;-70
2023/08/22 08:32:16;;;;;;;;;6.75;6.25;;;;;20.53;73.13;102038.00;5054629;28;9591;-70
2023/08/22 08:34:43;;;;;;;;;7.00;6.00;;;;;20.57;73.05;102037.28;5050227;28;8814;-70
2023/08/22 08:37:10;;;;;;;;;6.75;6.75;;;;;20.61;73.22;102038.50;5049221;28;8834;-69
2023/08/22 08:39:36;;;;;;;;;4.75;4.75;;;;;20.67;73.03;102031.28;5055262;28;9585;-68
2023/08/22 08:42:14;;;;;;;;;5.00;5.00;;;;;20.71;73.13;102027.84;5067013;28;8831;-69
2023/08/22 08:44:41;;;;;;;;;4.75;4.75;;;;;20.78;73.03;102029.63;5070129;28;8811;-69
2023/08/22 08:47:09;;;;;;;;;6.00;5.00;;;;;20.79;72.52;102028.59;5070456;28;8822;-69
2023/08/22 08:49:37;;;;;;;;;7.75;7.75;;;;;20.74;72.42;102024.66;5068819;28;8830;-68
2023/08/22 08:52:05;;;;;;;;;9.25;6.00;;;;;20.76;72.18;102023.56;5070014;28;8823;-69
2023/08/22 08:54:32;;;;;;;;;6.00;6.00;;;;;20.74;72.23;102032.84;5070048;28;8907;-70
2023/08/22 08:56:59;;;;;;;;;5.50;5.50;;;;;20.70;72.17;102026.19;5066045;28;8827;-70
2023/08/22 08:59:27;;;;;;;;;7.00;7.00;;;;;20.64;71.97;102027.09;5058576;28;8843;-69
2023/08/22 09:01:54;;;;;;;;;3.00;3.00;;;;;20.67;71.74;102021.16;5055506;28;8899;-69
2023/08/22 09:04:21;;;;;;;;;3.25;3.25;;;;;20.72;71.59;102026.75;5050031;28;8837;-69
2023/08/22 09:06:48;;;;;;;;;5.00;2.25;;;;;20.77;71.40;102033.44;5053632;28;9596;-69
2023/08/22 09:09:15;;;;;;;;;3.75;3.75;;;;;20.80;71.08;102042.03;5052612;28;8841;-68
2023/08/22 09:11:44;;;;;;;;;2.00;2.00;;;;;20.79;70.61;102042.25;5054333;28;8810;-69
2023/08/22 09:14:22;;;;;;;;;2.75;2.00;;;;;20.77;70.49;102037.00;5052761;28;8810;-68
2023/08/22 09:16:49;;;;;;;;;3.00;3.00;;;;;20.78;70.33;102037.84;5063367;28;8846;-68
2023/08/22 09:19:16;;;;;;;;;2.00;2.00;;;;;20.84;70.35;102036.91;5068461;28;8811;-68
2023/08/22 09:21:59;;;;;;;;;4.00;4.00;;;;;20.89;70.27;102039.78;5073422;28;8807;-69
2023/08/22 09:24:27;;;;;;;;;1.75;1.75;;;;;20.93;70.00;102041.81;5073833;28;9494;-69
2023/08/22 09:26:53;;;;;;;;;1.00;1.00;;;;;20.97;69.92;102039.44;5073438;28;8908;-68
2023/08/22 09:29:33;;;;;;;;;1.50;1.50;;;;;21.09;69.80;102042.22;5069731;28;9586;-69
2023/08/22 09:32:03;;;;;;;;;2.00;1.75;;;;;21.17;69.47;102045.44;5069161;28;8835;-69
2023/08/22 09:34:30;;;;;;;;;2.25;2.25;;;;;21.23;69.21;102046.41;5057277;28;8841;-69
2023/08/22 09:36:57;;;;;;;;;2.50;1.25;;;;;21.24;68.99;102045.34;5052288;28;8899;-68
2023/08/22 09:39:25;;;;;;;;;2.75;2.75;;;;;21.29;68.71;102034.50;5069441;28;8819;-69
2023/08/22 09:41:56;;;;;;;;;4.25;2.00;;;;;21.35;68.47;102035.47;5071726;28;8820;-68
2023/08/22 09:44:28;;;;;;;;;2.00;2.00;;;;;21.33;68.38;102048.59;5067869;28;8911;-69
2023/08/22 09:46:56;;;;;;;;;2.00;2.00;;;;;21.27;68.15;102049.50;5057326;28;8849;-69
2023/08/22 09:49:23;;;;;;;;;2.00;2.00;;;;;21.28;67.78;102060.22;5053069;28;8921;-69
2023/08/22 09:51:52;;;;;;;;;2.00;1.75;;;;;21.32;67.55;102045.03;5052667;28;8852;-69
2023/08/22 09:54:18;;;;;;;;;2.75;2.75;;;;;21.37;67.23;102041.56;5064307;28;8919;-69
2023/08/22 09:56:46;;;;;;;;;3.25;2.75;;;;;21.37;66.78;102041.56;5072775;28;8953;-69
2023/08/22 09:59:16;;;;;;;;;2.00;2.00;;;;;21.35;66.98;102049.16;5071722;28;8906;-69
2023/08/22 10:01:42;;;;;;;;;2.25;2.25;;;;;21.31;66.91;102047.94;5039780;28;8869;-69
2023/08/22 10:04:10;;;;;;;;;1.50;1.50;;;;;21.28;66.60;102053.91;5052143;28;8813;-69
2023/08/22 10:06:38;;;;;;;;;1.00;1.00;;;;;21.24;66.82;102070.00;5072731;28;8845;-69
2023/08/22 10:09:13;;;;;;;;;2.25;2.00;;;;;21.22;66.90;102063.91;5057855;28;8945;-69
2023/08/22 10:11:44;;;;;;;;;1.00;1.00;;;;;21.22;66.86;102066.63;5070028;28;8912;-68
2023/08/22 10:14:30;;;;;;;;;2.50;2.00;;;;;21.20;66.76;102050.44;5071113;28;8835;-68
2023/08/22 10:16:58;;;;;;;;;2.75;2.00;;;;;21.24;66.78;102050.81;5072065;28;8827;-69
2023/08/22 10:19:25;;;;;;;;;3.00;3.00;;;;;21.27;66.72;102060.44;5072483;28;8815;-68
2023/08/22 10:21:55;;;;;;;;;2.75;2.75;;;;;21.35;66.55;102068.34;5068830;28;8815;-70
2023/08/22 10:24:30;;;;;;;;;2.50;2.25;;;;;21.37;66.21;102071.69;5062190;28;8835;-68
2023/08/22 10:27:15;;;;;;;;;3.00;1.00;;;;;21.40;66.40;102073.97;5072217;28;8862;-69
2023/08/22 10:29:45;;;;;;;;;1.00;1.00;;;;;21.33;66.46;102065.84;5071143;28;8831;-68
2023/08/22 10:32:15;;;;;;;;;5.75;2.50;;;;;21.33;66.61;102059.53;5072537;28;8892;-70
2023/08/22 10:34:41;;;;;;;;;3.00;3.00;;;;;21.33;66.51;102057.63;5065073;28;8855;-69
2023/08/22 10:37:16;;;;;;;;;2.75;2.00;;;;;21.31;66.42;102057.03;5066601;28;8859;-69
2023/08/22 10:39:44;;;;;;;;;2.00;2.00;;;;;21.32;66.58;102050.50;5070236;28;9558;-68
2023/08/22 10:42:13;;;;;;;;;1.25;1.25;;;;;21.33;66.23;102054.91;5067326;28;8841;-70
2023/08/22 10:44:40;;;;;;;;;2.25;2.00;;;;;21.35;66.01;102055.50;5072129;28;8824;-70
2023/08/22 10:47:24;;;;;;;;;2.00;2.00;;;;;21.38;66.31;102057.75;5064986;28;8847;-69
2023/08/22 10:49:52;;;;;;;;;1.50;1.50;;;;;21.37;66.53;102055.25;5056738;28;8826;-69
2023/08/22 10:52:35;;;;;;;;;2.25;1.75;;;;;21.29;66.06;102053.66;5051028;28;8785;-70
2023/08/22 10:55:08;;;;;;;;;2.50;2.00;;;;;21.29;66.16;102052.84;5059100;28;9576;-70
2023/08/22 10:57:37;;;;;;;;;1.75;1.00;;;;;21.26;65.99;102045.91;5070623;28;8851;-68
2023/08/22 11:00:22;;;;;;;;;3.75;3.00;;;;;21.22;66.51;102048.28;5069183;28;8846;-69
2023/08/22 11:02:57;;;;;;;;;1.50;1.25;;;;;21.29;66.81;102055.59;5050691;28;8838;-69
2023/08/22 11:05:26;;;;;;;;;1.00;1.00;;;;;21.39;66.87;102056.72;5050462;28;8834;-68
2023/08/22 11:07:53;;;;;;;;;1.00;1.00;;;;;21.44;66.74;102059.56;5052131;28;8926;-69
2023/08/22 11:10:24;;;;;;;;;2.50;2.00;;;;;21.49;66.37;102067.06;5063113;28;8839;-69
2023/08/22 11:12:54;;;;;;;;;1.00;1.00;;;;;21.50;66.12;102070.63;5041607;28;8814;-69
2023/08/22 11:15:21;;;;;;;;;1.75;1.75;;;;;21.43;65.93;102073.47;5070004;28;8849;-70
2023/08/22 11:17:50;;;;;;;;;2.00;2.00;;;;;21.42;65.67;102077.28;5070316;28;8869;-70
2023/08/22 11:20:20;;;;;;;;;2.00;1.75;;;;;21.46;65.72;102083.97;5070166;28;8866;-70
2023/08/22 11:22:46;;;;;;;;;2.25;2.25;;;;;21.45;65.78;102083.13;5070097;28;8815;-70
2023/08/22 11:25:22;;;;;;;;;3.00;2.25;;;;;21.42;65.74;102071.81;5066459;28;8906;-68
2023/08/22 11:27:48;;;;;;;;;3.00;3.00;;;;;21.39;66.06;102061.31;5050648;28;8849;-68
2023/08/22 11:30:18;;;;;;;;;2.75;2.50;;;;;21.41;66.33;102064.69;5056626;28;8838;-68
2023/08/22 11:32:45;;;;;;;;;2.00;2.00;;;;;21.41;66.30;102064.69;5070380;28;8904;-69
2023/08/22 11:35:12;;;;;;;;;1.25;1.25;;;;;21.42;66.20;102066.34;5059490;28;8870;-69
2023/08/22 11:37:40;;;;;;;;;2.25;1.75;;;;;21.43;66.33;102070.75;5070335;28;8932;-69